• Join FlightAware (Why Join?)
  • Login
  • US Flag 
03:20AM EST


 

Airport Tracker/Info


-or-


 

Live Flight TrackerFlight Track Log ✈ RPA3161 ✈ 04-May-2013 ✈ KBTV - KDCA

Flight Track Log - Related Links

Times and Time Zones

All times are in EDT time to prevent confusion due to time zone crossing. See the RPA3161 flight status page for this flight to view local times or setup timezone preferences in your user account.

Time Position Orientation Groundspeed Altitude Reporting Facility
EDT Latitude Longitude Course Direction KTS MPH feet Rate Location/Type
12:37PM 44.1877 -73.2546 195° South  Level FlightAware Approximate
12:37PM 44.4494 -73.3444 198° South 270 311 8,100  Level Boston Center
12:38PM 44.0942 -73.2897 195° South  Level FlightAware Approximate
12:38PM 44.3722 -73.3753 196° South 270 311 11,100  Level Boston Center
12:39PM 44.0002 -73.3222 194° South  Level FlightAware Approximate
12:39PM 44.2928 -73.3942 190° South 307 353 13,700  Level Boston Center
12:40PM 43.9061 -73.3540 195° South  Level FlightAware Approximate
12:40PM 44.1989 -73.4217 192° South 342 394 16,400  Level Boston Center
12:41PM 43.8126 -73.3891 195° South  Level FlightAware Approximate
12:41PM 44.0986 -73.4489 191° South 360 414 18,400  Level Boston Center
12:42PM 43.7191 -73.4242 195° South  Level FlightAware Approximate
12:42PM 43.9942 -73.4761 191° South 377 434 20,700  Level Boston Center
12:43PM 43.6260 -73.4610 198° South  Level FlightAware Approximate
12:43PM 43.8833 -73.5058 191° South 393 452 22,700  Level Boston Center
12:44PM 43.7706 -73.5356 191° South 411 473 24,700 1,920 Climbing Boston Center
12:45PM 43.6411 -73.5706 191° South 428 493 26,600 1,680 Climbing Boston Center
12:46PM 43.5200 -73.5997 190° South 433 498 28,100 1,440 Climbing Boston Center
12:47PM 43.3967 -73.6344 192° South 443 510 29,500 1,200 Climbing Boston Center
12:48PM 43.2711 -73.6661 190° South 454 522 30,600 1,140 Climbing Boston Center
12:49PM 43.1436 -73.7006 191° South 464 534 31,800 660 Climbing Boston Center
12:50PM 43.0203 -73.7350 192° South 469 540 32,000 60 Climbing Boston Center
12:51PM 42.9117 -73.7611 190° South 463 533 32,000  Level Boston Center
12:52PM 42.7842 -73.7953 191° South 458 527 32,000  Level Boston Center
12:53PM 42.6550 -73.7953 180° South 459 528 32,000  Level Boston Center
12:54PM 42.5156 -73.7725 173° South 458 527 32,000  Level Boston Center
12:55PM 42.3886 -73.7528 173° South 463 533 32,000  Level Boston Center
12:56PM 42.2575 -73.7361 175° South 463 533 32,000  Level Boston Center
12:57PM 42.1217 -73.7583 187° South 475 547 32,000  Level Boston Center
12:58PM 41.9939 -73.8228 201° Southwest 486 559 32,000  Level Boston Center
12:59PM 41.8661 -73.8842 200° South 486 559 32,000  Level Boston Center
01:01PM 41.6172 -74.0036 200° South 473 544 32,000  Level New York Center
01:02PM 41.4967 -74.0644 201° Southwest 473 544 32,000  Level New York Center
01:03PM 41.3681 -74.1244 199° South 478 550 32,000 -240 Level New York Center
01:04PM 41.2392 -74.1869 200° South 484 557 31,600 -660 Descending New York Center
01:05PM 41.1231 -74.2389 199° South 495 570 30,700 -960 Descending New York Center
01:06PM 40.9964 -74.2983 200° South 495 570 29,700 -1,020 Descending New York Center
01:07PM 40.8717 -74.3606 201° Southwest 485 558 28,700 -900 Descending New York Center
01:08PM 40.7650 -74.4425 210° Southwest 472 543 28,000 -360 Descending New York Center
01:09PM 40.6836 -74.5750 231° Southwest 457 526 28,000  Level New York Center
01:10PM 40.6044 -74.7044 231° Southwest 457 526 28,000  Level New York Center
01:11PM 40.5231 -74.8308 230° Southwest 457 526 28,000  Level New York Center
01:12PM 40.4375 -74.9511 227° Southwest 462 532 28,000  Level New York Center
01:13PM 40.3478 -75.0739 226° Southwest 467 537 28,000  Level New York Center
01:14PM 40.2619 -75.1964 227° Southwest 467 537 28,000 -960 Level New York Center
01:15PM 40.1758 -75.3186 227° Southwest 467 537 26,100 -2,160 Descending New York Center
01:16PM 40.0900 -75.4350 226° Southwest 467 537 23,700 -2,040 Descending New York Center
01:17PM 39.9994 -75.5617 227° Southwest 447 514 22,000 -900 Descending New York Center
01:18PM 39.9219 -75.6756 228° Southwest 441 507 22,000  Level New York Center
01:19PM 39.8500 -75.8003 233° Southwest 434 499 22,000 -360 Level New York Center
01:20PM 39.7739 -75.9192 230° Southwest 434 499 21,300 -1,500 Descending New York Center
01:21PM 39.7000 -76.0325 230° Southwest 429 494 19,100 -1,920 Descending New York Center
01:22PM 39.6350 -76.1328 230° Southwest 419 482 17,500 -2,100 Descending New York Center
01:24PM 39.5333 -76.3000 232° Southwest 380 437 14,200 -2,280 Descending Potomac TRACON
01:25PM 39.4667 -76.3833 224° Southwest 365 420 12,400 -1,200 Descending Potomac TRACON
01:26PM 39.4000 -76.4667 224° Southwest 350 403 12,000 -240 Descending Potomac TRACON
01:27PM 39.3167 -76.5333 212° Southwest 349 402 12,000 -360 Level Potomac TRACON
01:28PM 39.2333 -76.6000 212° Southwest 347 399 11,300 -1,020 Descending Potomac TRACON
01:29PM 39.1667 -76.6667 218° Southwest 309 356 10,000 -660 Descending Potomac TRACON
01:30PM 39.1000 -76.7500 224° Southwest 301 346 10,000 -240 Level Potomac TRACON
01:31PM 39.0333 -76.8167 218° Southwest 299 344 9,600 -1,140 Descending Potomac TRACON
01:32PM 38.9833 -76.8833 226° Southwest 290 334 7,800 -1,740 Descending Potomac TRACON
01:33PM 38.9167 -76.9333 210° Southwest 280 322 6,100 -900 Descending Potomac TRACON
01:34PM 38.8500 -76.9500 191° South 238 274 6,000 -300 Descending Potomac TRACON
01:35PM 38.7833 -76.9500 180° South 227 261 5,500 -540 Descending Potomac TRACON
01:36PM 38.7333 -76.9333 165° South 220 253 5,000 -840 Descending Potomac TRACON
01:37PM 38.6667 -76.9667 201° Southwest 241 277 3,900 -1,320 Descending Potomac TRACON
01:38PM 38.6667 -77.0333 270° West 230 265 2,400 -960 Descending Potomac TRACON
01:39PM 38.7167 -77.0333 360° North 173 199 2,000 -420 Descending Potomac TRACON
01:40PM 38.7667 -77.0333 360° North 173 199 1,600 -600 Descending Potomac TRACON
01:41PM 38.8167 -77.0333 360° North 137 158 800 -840 Descending Potomac TRACON